createdAt,value
2019-03-09T00:01:43.815Z,17.17
2019-03-09T00:06:45.440Z,14.47
2019-03-09T00:11:46.998Z,18.80
2019-03-09T00:16:48.947Z,28.10
2019-03-09T00:21:50.559Z,15.23
2019-03-09T00:26:56.729Z,14.43
2019-03-09T00:32:03.275Z,15.57
2019-03-09T00:37:05.147Z,18.37
2019-03-09T00:42:06.820Z,36.27
2019-03-09T00:47:08.527Z,36.80
2019-03-09T00:52:10.216Z,22.83
2019-03-09T00:57:11.770Z,17.00
2019-03-09T01:02:13.316Z,15.43
2019-03-09T01:07:14.948Z,14.73
2019-03-09T01:12:16.602Z,13.57
2019-03-09T01:17:18.299Z,13.80
2019-03-09T01:22:19.849Z,11.13
2019-03-09T01:27:21.500Z,9.50
2019-03-09T01:32:23.148Z,9.73
2019-03-09T01:37:24.696Z,8.87
2019-03-09T01:42:26.256Z,7.13
2019-03-09T01:47:27.915Z,6.90
2019-03-09T01:52:29.575Z,6.57
2019-03-09T01:57:31.131Z,7.03
2019-03-09T02:02:32.681Z,6.67
2019-03-09T02:07:34.527Z,6.03
2019-03-09T02:12:36.284Z,6.00
2019-03-09T02:17:37.877Z,6.20
2019-03-09T02:22:39.583Z,5.87
2019-03-09T02:27:41.244Z,6.30
2019-03-09T02:32:42.993Z,5.57
2019-03-09T02:37:44.795Z,4.70
2019-03-09T02:42:46.345Z,6.47
2019-03-09T02:47:47.933Z,6.30
2019-03-09T02:52:50.762Z,7.53
2019-03-09T02:57:52.318Z,7.63
2019-03-09T03:03:07.007Z,9.43
2019-03-09T03:08:08.732Z,8.53
2019-03-09T03:13:10.291Z,8.27
2019-03-09T03:18:11.907Z,10.77
2019-03-09T03:23:13.557Z,8.77
2019-03-09T03:28:15.123Z,8.90
2019-03-09T03:33:16.823Z,7.07
2019-03-09T03:38:18.521Z,8.00
2019-03-09T03:43:20.122Z,8.90
2019-03-09T03:48:22.676Z,8.83
2019-03-09T03:53:24.284Z,7.27
2019-03-09T03:58:25.833Z,7.00
2019-03-09T04:03:27.387Z,6.43
2019-03-09T04:08:29.650Z,6.60
2019-03-09T04:13:31.768Z,5.87
2019-03-09T04:18:33.320Z,4.73
2019-03-09T04:23:34.915Z,4.97
2019-03-09T04:28:36.513Z,5.07
2019-03-09T04:33:38.305Z,6.30
2019-03-09T04:38:39.860Z,5.10
2019-03-09T04:43:41.427Z,5.40
2019-03-09T04:48:43.088Z,5.13
2019-03-09T04:53:44.652Z,4.97
2019-03-09T04:58:46.207Z,4.97
2019-03-09T05:03:56.293Z,4.67
2019-03-09T05:09:12.232Z,5.57
2019-03-09T05:14:13.892Z,4.57
2019-03-09T05:19:15.472Z,5.03
2019-03-09T05:24:17.008Z,4.90
2019-03-09T05:29:18.578Z,4.90
2019-03-09T05:34:20.358Z,4.47
2019-03-09T05:39:21.949Z,5.43
2019-03-09T05:44:23.770Z,4.23
2019-03-09T05:49:25.424Z,5.63
2019-03-09T05:54:27.017Z,5.57
2019-03-09T05:59:28.660Z,4.23
2019-03-09T06:04:30.224Z,4.93
2019-03-09T06:09:31.853Z,4.20
2019-03-09T06:14:33.708Z,5.50
2019-03-09T06:19:35.297Z,4.33
2019-03-09T06:24:36.856Z,4.70
2019-03-09T06:29:38.433Z,4.50
2019-03-09T06:34:39.976Z,4.83
2019-03-09T06:39:41.776Z,4.30
2019-03-09T06:44:43.528Z,4.27
2019-03-09T06:49:46.294Z,3.97
2019-03-09T06:54:47.894Z,4.07
2019-03-09T06:59:49.551Z,3.53
2019-03-09T07:04:51.186Z,3.60
2019-03-09T07:09:52.913Z,3.60
2019-03-09T07:15:03.191Z,3.63
2019-03-09T07:20:12.625Z,4.27
2019-03-09T07:25:12.119Z,3.87
2019-03-09T07:30:15.933Z,3.77
2019-03-09T07:35:17.684Z,2.90
2019-03-09T07:40:19.440Z,2.73
2019-03-09T07:45:21.003Z,3.30
2019-03-09T07:50:22.695Z,3.27
2019-03-09T07:55:24.276Z,2.60
2019-03-09T08:00:26.030Z,2.80
2019-03-09T08:05:27.812Z,2.80
2019-03-09T08:10:30.500Z,2.63
2019-03-09T08:15:32.261Z,2.90
2019-03-09T08:20:33.856Z,2.30
2019-03-09T08:25:35.420Z,2.80
2019-03-09T08:30:37.091Z,3.10
2019-03-09T08:35:38.646Z,2.07
2019-03-09T08:40:40.280Z,2.60
2019-03-09T08:45:41.835Z,3.20
2019-03-09T08:50:43.605Z,2.90
2019-03-09T08:55:45.195Z,2.37
2019-03-09T09:00:46.771Z,3.07
2019-03-09T09:05:48.428Z,2.63
2019-03-09T09:10:50.933Z,2.47
2019-03-09T09:15:52.799Z,3.20
2019-03-09T09:20:54.361Z,4.53
2019-03-09T09:25:55.911Z,3.23
2019-03-09T09:30:57.497Z,3.20
2019-03-09T09:35:59.444Z,3.83
2019-03-09T09:41:01.104Z,3.70
2019-03-09T09:46:02.860Z,3.33
2019-03-09T09:51:04.627Z,3.20
2019-03-09T09:56:06.180Z,3.07
2019-03-09T10:01:07.805Z,2.90
2019-03-09T10:06:09.403Z,2.60
2019-03-09T10:11:12.233Z,3.00
2019-03-09T10:16:13.798Z,2.63
2019-03-09T10:21:15.629Z,3.37
2019-03-09T10:26:18.714Z,2.83
2019-03-09T10:31:20.749Z,3.00
2019-03-09T10:36:24.217Z,3.07
2019-03-09T10:41:26.303Z,2.60
2019-03-09T10:46:31.142Z,2.80
2019-03-09T10:51:32.688Z,2.63
2019-03-09T10:56:35.798Z,4.17
2019-03-09T11:01:38.691Z,2.60
2019-03-09T11:06:42.179Z,2.70
2019-03-09T11:11:44.936Z,2.40
2019-03-09T11:16:48.423Z,2.80
2019-03-09T11:21:49.974Z,2.73
2019-03-09T11:26:53.224Z,2.40
2019-03-09T11:31:54.996Z,2.87
2019-03-09T11:36:56.884Z,8.37
2019-03-09T11:42:02.613Z,5.00
2019-03-09T11:47:04.777Z,2.77
2019-03-09T11:52:06.434Z,2.37
2019-03-09T11:57:09.313Z,4.97
2019-03-09T12:02:12.817Z,2.37
2019-03-09T12:07:14.720Z,3.33
2019-03-09T12:12:17.848Z,4.43
2019-03-09T12:17:21.024Z,4.27
2019-03-09T12:22:24.319Z,4.50
2019-03-09T12:27:27.302Z,4.50
2019-03-09T12:32:28.906Z,8.37
2019-03-09T12:37:33.160Z,8.63
2019-03-09T12:42:35.141Z,6.23
2019-03-09T12:47:38.662Z,8.03
2019-03-09T12:52:40.533Z,4.90
2019-03-09T12:57:44.551Z,4.57
2019-03-09T13:02:46.538Z,4.57
2019-03-09T13:07:50.395Z,4.27
2019-03-09T13:12:53.188Z,3.50
2019-03-09T13:17:54.867Z,8.77
2019-03-09T13:22:56.740Z,3.70
2019-03-09T13:28:01.317Z,3.17
2019-03-09T13:33:04.932Z,3.70
2019-03-09T13:38:07.689Z,8.57
2019-03-09T13:43:09.719Z,4.23
2019-03-09T13:48:14.682Z,5.17
2019-03-09T13:53:16.301Z,7.80
2019-03-09T13:58:19.153Z,4.83
2019-03-09T14:03:20.860Z,3.80
2019-03-09T14:08:24.057Z,6.50
2019-03-09T14:13:25.967Z,5.33
2019-03-09T14:18:31.024Z,5.53
2019-03-09T14:23:35.869Z,5.37
2019-03-09T14:28:37.420Z,6.37
2019-03-09T14:33:40.274Z,7.50
2019-03-09T14:38:42.620Z,7.33
2019-03-09T14:43:45.178Z,5.13
2019-03-09T14:48:47.327Z,4.83
2019-03-09T14:53:52.480Z,3.63
2019-03-09T14:58:54.209Z,6.00
2019-03-09T15:03:57.660Z,6.23
2019-03-09T15:09:01.125Z,7.83
2019-03-09T15:14:04.752Z,19.30
2019-03-09T15:19:07.370Z,12.03
2019-03-09T15:24:08.934Z,6.70
2019-03-09T15:29:10.801Z,6.07
2019-03-09T15:34:12.652Z,6.37
2019-03-09T15:39:15.763Z,6.10
2019-03-09T15:44:18.850Z,7.03
2019-03-09T15:49:20.648Z,6.20
2019-03-09T15:54:22.363Z,6.13
2019-03-09T15:59:28.748Z,9.70
2019-03-09T16:04:33.193Z,9.10
2019-03-09T16:09:35.821Z,9.50
2019-03-09T16:14:37.492Z,7.67
2019-03-09T16:19:41.469Z,10.73
2019-03-09T16:24:44.131Z,12.53
2019-03-09T16:29:46.244Z,9.27
2019-03-09T16:34:49.697Z,8.10
2019-03-09T16:39:55.033Z,7.50
2019-03-09T16:44:56.650Z,7.10
2019-03-09T16:49:58.203Z,7.10
2019-03-09T16:55:01.543Z,6.73
2019-03-09T17:00:21.321Z,7.00
2019-03-09T17:05:23.293Z,6.70
2019-03-09T17:10:25.064Z,7.47
2019-03-09T17:15:26.791Z,6.13
2019-03-09T17:20:28.370Z,6.63
2019-03-09T17:25:29.923Z,5.63
2019-03-09T17:30:31.486Z,6.67
2019-03-09T17:35:33.068Z,6.43
2019-03-09T17:40:34.621Z,7.37
2019-03-09T17:45:36.222Z,6.80
2019-03-09T17:50:37.765Z,6.03
2019-03-09T17:55:39.332Z,7.77
2019-03-09T18:00:44.826Z,7.20
2019-03-09T18:05:46.391Z,6.07
2019-03-09T18:10:53.031Z,6.37
2019-03-09T18:15:54.913Z,6.23
2019-03-09T18:20:56.504Z,8.80
2019-03-09T18:25:58.064Z,16.47
2019-03-09T18:30:59.641Z,26.27
2019-03-09T18:36:02.907Z,6.53
2019-03-09T18:41:06.487Z,6.97
2019-03-09T18:46:08.337Z,9.63
2019-03-09T18:51:13.721Z,7.47
2019-03-09T18:56:16.372Z,5.13
2019-03-09T19:01:18.201Z,5.20
2019-03-09T19:06:21.266Z,5.73
2019-03-09T19:11:23.077Z,5.30
2019-03-09T19:16:27.414Z,6.10
2019-03-09T19:21:31.523Z,6.33
2019-03-09T19:26:34.131Z,5.20
2019-03-09T19:31:36.932Z,7.23
2019-03-09T19:36:39.835Z,5.67
2019-03-09T19:41:44.743Z,5.90
2019-03-09T19:46:46.319Z,5.90
2019-03-09T19:51:49.100Z,5.33
2019-03-09T19:56:53.866Z,9.63
2019-03-09T20:01:56.724Z,5.90
2019-03-09T20:06:59.662Z,5.37
2019-03-09T20:12:02.524Z,5.60
2019-03-09T20:17:04.493Z,4.43
2019-03-09T20:22:07.823Z,5.13
2019-03-09T20:27:10.837Z,5.20
2019-03-09T20:32:14.780Z,4.53
2019-03-09T20:37:17.949Z,5.03
2019-03-09T20:42:21.594Z,4.63
2019-03-09T20:47:24.597Z,4.10
2019-03-09T20:52:28.430Z,3.73
2019-03-09T20:57:30.311Z,3.97
2019-03-09T21:02:32.260Z,4.50
2019-03-09T21:07:36.127Z,4.33
2019-03-09T21:13:01.989Z,3.57
2019-03-09T21:18:04.941Z,2.80
2019-03-09T21:23:06.711Z,3.27
2019-03-09T21:28:08.442Z,2.90
2019-03-09T21:33:10.023Z,3.70
2019-03-09T21:38:11.573Z,4.37
2019-03-09T21:43:13.227Z,4.23
2019-03-09T21:48:14.779Z,4.70
2019-03-09T21:53:16.335Z,2.93
2019-03-09T21:58:17.937Z,2.70
2019-03-09T22:03:19.597Z,2.67
2019-03-09T22:08:21.280Z,2.17
2019-03-09T22:13:23.100Z,2.00
2019-03-09T22:18:24.853Z,2.13
2019-03-09T22:23:26.747Z,1.97
2019-03-09T22:28:28.303Z,2.30
2019-03-09T22:33:29.856Z,3.13
2019-03-09T22:38:31.436Z,3.13
2019-03-09T22:43:33.033Z,3.63
2019-03-09T22:48:34.652Z,3.80
2019-03-09T22:53:36.396Z,3.10
2019-03-09T22:58:38.496Z,2.10
2019-03-09T23:03:40.245Z,2.60
2019-03-09T23:08:41.812Z,2.30
2019-03-09T23:13:43.494Z,3.17
2019-03-09T23:18:45.163Z,3.03
2019-03-09T23:23:46.762Z,2.73
2019-03-09T23:28:48.563Z,2.10
2019-03-09T23:33:51.225Z,2.40
2019-03-09T23:38:52.779Z,1.67
2019-03-09T23:43:54.339Z,2.03
2019-03-09T23:48:57.036Z,1.40
2019-03-09T23:53:58.663Z,1.13
2019-03-09T23:59:00.224Z,1.57
